createdAt,value
2019-05-15T00:02:29.716Z,87.96
2019-05-15T00:05:01.781Z,88.08
2019-05-15T00:07:33.149Z,88.23
2019-05-15T00:10:08.546Z,88.19
2019-05-15T00:12:40.992Z,88.54
2019-05-15T00:15:12.646Z,88.78
2019-05-15T00:17:44.450Z,89.03
2019-05-15T00:20:16.023Z,89.01
2019-05-15T00:22:48.447Z,88.95
2019-05-15T00:25:22.695Z,89.29
2019-05-15T00:27:58.152Z,89.28
2019-05-15T00:30:29.622Z,89.06
2019-05-15T00:33:00.973Z,88.89
2019-05-15T00:35:32.728Z,89.48
2019-05-15T00:38:04.493Z,89.72
2019-05-15T00:40:39.203Z,89.79
2019-05-15T00:43:09.537Z,89.79
2019-05-15T00:45:44.331Z,90.04
2019-05-15T00:48:14.566Z,90.27
2019-05-15T00:50:48.396Z,90.38
2019-05-15T00:53:19.823Z,90.39
2019-05-15T00:55:51.480Z,90.33
2019-05-15T00:58:23.266Z,90.37
2019-05-15T01:00:55.096Z,90.35
2019-05-15T01:03:27.875Z,90.43
2019-05-15T01:05:59.934Z,90.59
2019-05-15T01:08:32.110Z,90.78
2019-05-15T01:11:03.659Z,90.94
2019-05-15T01:13:35.130Z,90.98
2019-05-15T01:16:09.250Z,91.19
2019-05-15T01:18:41.082Z,91.28
2019-05-15T01:21:12.895Z,91.27
2019-05-15T01:23:44.812Z,91.63
2019-05-15T01:26:18.863Z,91.68
2019-05-15T01:28:50.200Z,91.84
2019-05-15T01:31:22.232Z,92.10
2019-05-15T01:33:53.730Z,92.33
2019-05-15T01:36:25.677Z,92.43
2019-05-15T01:38:58.476Z,92.43
2019-05-15T01:41:30.094Z,92.31
2019-05-15T01:44:02.552Z,92.36
2019-05-15T01:46:34.208Z,92.14
2019-05-15T01:49:08.046Z,92.15
2019-05-15T01:51:39.426Z,92.50
2019-05-15T01:54:10.942Z,92.54
2019-05-15T01:56:42.857Z,92.49
2019-05-15T01:59:14.655Z,92.56
2019-05-15T02:01:48.488Z,92.44
2019-05-15T02:04:20.823Z,92.24
2019-05-15T02:06:52.600Z,92.53
2019-05-15T02:09:24.074Z,92.82
2019-05-15T02:11:57.981Z,93.05
2019-05-15T02:14:28.971Z,93.38
2019-05-15T02:17:00.931Z,93.31
2019-05-15T02:19:32.788Z,93.93
2019-05-15T02:22:04.344Z,94.03
2019-05-15T02:24:38.856Z,94.00
2019-05-15T02:27:09.321Z,94.22
2019-05-15T02:29:40.540Z,94.09
2019-05-15T02:32:12.422Z,93.55
2019-05-15T02:34:43.856Z,93.43
2019-05-15T02:37:15.608Z,93.15
2019-05-15T02:39:49.585Z,93.02
2019-05-15T02:42:20.987Z,92.79
2019-05-15T02:44:52.331Z,92.51
2019-05-15T02:47:24.413Z,92.22
2019-05-15T02:49:59.107Z,91.81
2019-05-15T02:52:29.867Z,92.08
2019-05-15T02:55:01.403Z,92.03
2019-05-15T02:57:33.205Z,91.97
2019-05-15T03:00:10.362Z,92.00
2019-05-15T03:02:41.600Z,92.01
2019-05-15T03:05:13.334Z,92.05
2019-05-15T03:07:45.270Z,92.00
2019-05-15T03:10:19.968Z,92.00
2019-05-15T03:12:50.353Z,92.00
2019-05-15T03:15:21.884Z,91.75
2019-05-15T03:17:53.461Z,91.34
2019-05-15T03:20:24.904Z,88.74
2019-05-15T03:22:59.525Z,84.32
2019-05-15T03:25:29.899Z,80.99
2019-05-15T03:28:01.429Z,80.72
2019-05-15T03:31:04.747Z,80.25
2019-05-15T03:33:11.560Z,74.77
2019-05-15T03:35:42.973Z,68.12
2019-05-15T03:38:12.552Z,64.79
2019-05-15T03:40:43.886Z,63.75
2019-05-15T03:43:18.409Z,63.26
2019-05-15T03:45:49.423Z,63.73
2019-05-15T03:48:21.209Z,64.14
2019-05-15T03:50:52.556Z,65.80
2019-05-15T03:53:23.974Z,67.35
2019-05-15T03:55:58.212Z,67.54
2019-05-15T03:58:29.046Z,68.29
2019-05-15T04:01:01.650Z,69.35
2019-05-15T04:03:33.403Z,70.48
2019-05-15T04:06:05.025Z,72.00
2019-05-15T04:08:39.111Z,71.99
2019-05-15T04:11:09.831Z,71.68
2019-05-15T04:13:41.553Z,71.87
2019-05-15T04:16:12.945Z,70.79
2019-05-15T04:18:44.495Z,71.93
2019-05-15T04:21:15.957Z,71.82
2019-05-15T04:23:49.962Z,72.37
2019-05-15T04:26:20.981Z,71.72
2019-05-15T04:28:52.739Z,70.44
2019-05-15T04:31:35.585Z,69.81
2019-05-15T04:34:01.136Z,66.86
2019-05-15T04:36:32.508Z,65.32
2019-05-15T04:39:06.004Z,65.78
2019-05-15T04:41:39.348Z,65.96
2019-05-15T04:44:10.847Z,65.37
2019-05-15T04:46:43.578Z,65.59
2019-05-15T04:49:15.287Z,63.92
2019-05-15T04:51:49.820Z,64.87
2019-05-15T04:54:22.589Z,63.64
2019-05-15T04:56:54.041Z,63.53
2019-05-15T04:59:25.545Z,62.82
2019-05-15T05:02:16.341Z,60.94
2019-05-15T05:04:30.374Z,58.15
2019-05-15T05:07:04.112Z,56.18
2019-05-15T05:09:38.764Z,51.10
2019-05-15T05:12:08.739Z,48.18
2019-05-15T05:14:40.279Z,47.80
2019-05-15T05:17:12.651Z,46.05
2019-05-15T05:19:44.084Z,44.76
2019-05-15T05:22:15.414Z,43.37
2019-05-15T05:24:47.828Z,42.14
2019-05-15T05:27:19.340Z,41.66
2019-05-15T05:29:50.895Z,42.12
2019-05-15T05:32:32.010Z,42.38
2019-05-15T05:34:55.477Z,40.56
2019-05-15T05:37:27.955Z,39.34
2019-05-15T05:39:59.711Z,38.17
2019-05-15T05:42:31.123Z,35.56
2019-05-15T05:45:02.670Z,35.56
2019-05-15T05:47:34.037Z,35.70
2019-05-15T05:50:07.991Z,36.89
2019-05-15T05:52:39.432Z,35.93
2019-05-15T05:55:11.238Z,36.69
2019-05-15T05:57:42.601Z,37.67
2019-05-15T06:00:18.063Z,39.31
2019-05-15T06:02:52.148Z,40.49
2019-05-15T06:05:21.999Z,40.33
2019-05-15T06:07:53.602Z,39.65
2019-05-15T06:10:25.061Z,36.17
2019-05-15T06:12:58.708Z,36.31
2019-05-15T06:15:29.915Z,36.03
2019-05-15T06:18:02.278Z,33.01
2019-05-15T06:20:33.765Z,32.63
2019-05-15T06:23:05.177Z,30.86
2019-05-15T06:25:38.928Z,31.52
2019-05-15T06:28:11.902Z,31.00
2019-05-15T06:30:43.320Z,30.49
2019-05-15T06:33:14.640Z,29.53
2019-05-15T06:35:48.563Z,28.72
2019-05-15T06:38:19.773Z,28.27
2019-05-15T06:40:51.560Z,29.34
2019-05-15T06:43:23.046Z,27.84
2019-05-15T06:45:54.527Z,28.51
2019-05-15T06:48:25.970Z,27.63
2019-05-15T06:50:58.022Z,26.88
2019-05-15T06:53:29.566Z,29.67
2019-05-15T06:56:03.423Z,27.32
2019-05-15T06:58:34.941Z,28.26
2019-05-15T07:01:08.848Z,27.40
2019-05-15T07:03:39.923Z,27.18
2019-05-15T07:06:11.644Z,26.63
2019-05-15T07:08:43.217Z,27.39
2019-05-15T07:11:14.706Z,27.20
2019-05-15T07:13:45.992Z,27.63
2019-05-15T07:16:18.218Z,27.48
2019-05-15T07:18:49.608Z,27.83
2019-05-15T07:21:21.163Z,29.19
2019-05-15T07:23:52.486Z,29.49
2019-05-15T07:26:23.973Z,27.82
2019-05-15T07:28:56.281Z,28.41
2019-05-15T07:31:29.861Z,26.92
2019-05-15T07:34:01.138Z,27.97
2019-05-15T07:36:32.541Z,25.69
2019-05-15T07:39:08.601Z,26.66
2019-05-15T07:41:40.053Z,24.70
2019-05-15T07:44:11.255Z,25.08
2019-05-15T07:46:42.624Z,24.45
2019-05-15T07:49:13.909Z,24.78
2019-05-15T07:51:45.326Z,23.83
2019-05-15T07:54:18.218Z,23.13
2019-05-15T07:56:50.093Z,24.98
2019-05-15T07:59:21.410Z,26.26
2019-05-15T08:01:52.909Z,28.82
2019-05-15T08:04:29.449Z,30.41
2019-05-15T08:06:59.162Z,30.95
2019-05-15T08:09:30.924Z,31.39
2019-05-15T08:12:03.477Z,31.71
2019-05-15T08:14:34.783Z,32.88
2019-05-15T08:17:08.513Z,33.67
2019-05-15T08:19:39.117Z,34.66
2019-05-15T08:22:10.575Z,34.58
2019-05-15T08:24:41.944Z,33.73
2019-05-15T08:27:13.537Z,33.58
2019-05-15T08:29:44.969Z,33.78
2019-05-15T08:32:18.809Z,33.18
2019-05-15T08:34:49.952Z,33.10
2019-05-15T08:37:21.443Z,33.68
2019-05-15T08:39:52.791Z,32.78
2019-05-15T08:42:24.373Z,31.69
2019-05-15T08:44:55.681Z,29.54
2019-05-15T08:47:29.662Z,29.44
2019-05-15T08:50:00.451Z,28.25
2019-05-15T08:52:31.835Z,27.62
2019-05-15T08:55:03.239Z,26.86
2019-05-15T08:57:34.671Z,26.16
2019-05-15T09:00:09.681Z,25.52
2019-05-15T09:02:43.658Z,25.37
2019-05-15T09:05:14.981Z,25.09
2019-05-15T09:07:48.620Z,23.87
2019-05-15T09:10:19.799Z,24.40
2019-05-15T09:12:54.239Z,22.97
2019-05-15T09:15:25.511Z,24.00
2019-05-15T09:18:11.668Z,24.50
2019-05-15T09:20:29.017Z,23.69
2019-05-15T09:23:00.476Z,23.85
2019-05-15T09:25:31.670Z,24.86
2019-05-15T09:28:03.144Z,24.67
2019-05-15T09:30:34.427Z,24.45
2019-05-15T09:33:08.082Z,24.46
2019-05-15T09:35:39.453Z,23.89
2019-05-15T09:38:11.092Z,23.88
2019-05-15T09:40:46.460Z,25.07
2019-05-15T09:43:15.384Z,24.59
2019-05-15T09:45:49.360Z,23.95
2019-05-15T09:48:20.393Z,23.26
2019-05-15T09:50:52.047Z,23.61
2019-05-15T09:53:23.142Z,22.10
2019-05-15T09:55:54.520Z,23.86
2019-05-15T09:58:25.802Z,24.15
2019-05-15T10:00:56.975Z,23.94
2019-05-15T10:03:28.384Z,23.96
2019-05-15T10:05:59.598Z,23.45
2019-05-15T10:08:31.296Z,24.00
2019-05-15T10:11:02.819Z,23.70
2019-05-15T10:13:34.230Z,23.36
2019-05-15T10:16:08.217Z,24.61
2019-05-15T10:18:39.191Z,24.62
2019-05-15T10:21:12.750Z,25.83
2019-05-15T10:23:44.399Z,26.65
2019-05-15T10:26:15.729Z,27.85
2019-05-15T10:28:49.295Z,27.89
2019-05-15T10:31:20.076Z,29.42
2019-05-15T10:33:51.605Z,29.76
2019-05-15T10:36:22.804Z,29.37
2019-05-15T10:38:54.345Z,32.28
2019-05-15T10:41:28.000Z,32.26
2019-05-15T10:44:00.409Z,32.50
2019-05-15T10:46:32.989Z,32.17
2019-05-15T10:49:04.528Z,33.29
2019-05-15T10:51:35.818Z,32.96
2019-05-15T10:54:08.495Z,32.39
2019-05-15T10:56:39.960Z,32.23
2019-05-15T10:59:11.342Z,32.66
2019-05-15T11:01:43.714Z,32.52
2019-05-15T11:04:15.116Z,31.86
2019-05-15T11:06:48.882Z,31.83
2019-05-15T11:09:20.087Z,32.77
2019-05-15T11:11:51.798Z,33.10
2019-05-15T11:14:24.361Z,32.79
2019-05-15T11:16:55.795Z,33.63
2019-05-15T11:19:35.517Z,32.45
2019-05-15T11:22:00.228Z,32.64
2019-05-15T11:24:32.384Z,32.56
2019-05-15T11:27:03.773Z,32.15
2019-05-15T11:29:38.165Z,33.33
2019-05-15T11:32:09.698Z,33.96
2019-05-15T11:34:42.418Z,34.34
2019-05-15T11:37:13.754Z,35.08
2019-05-15T11:39:47.056Z,34.44
2019-05-15T11:42:20.322Z,34.40
2019-05-15T11:44:53.379Z,34.95
2019-05-15T11:47:24.790Z,35.43
2019-05-15T11:49:58.310Z,34.31
2019-05-15T11:52:29.651Z,35.96
2019-05-15T11:55:01.339Z,35.90
2019-05-15T11:57:42.452Z,32.71
2019-05-15T12:00:14.960Z,32.71
2019-05-15T12:02:40.760Z,35.36
2019-05-15T12:05:11.932Z,36.51
2019-05-15T12:07:47.660Z,35.62
2019-05-15T12:10:18.473Z,34.69
2019-05-15T12:12:50.173Z,34.92
2019-05-15T12:15:21.884Z,33.88
2019-05-15T12:17:53.238Z,34.13
2019-05-15T12:20:28.371Z,36.31
2019-05-15T12:22:59.417Z,35.16
2019-05-15T12:25:31.875Z,35.45
2019-05-15T12:28:03.553Z,35.68
2019-05-15T12:30:34.981Z,36.30
2019-05-15T12:33:09.023Z,36.72
2019-05-15T12:35:40.270Z,36.23
2019-05-15T12:38:12.040Z,37.04
2019-05-15T13:01:16.999Z,38.68
2019-05-15T13:03:41.962Z,38.40
2019-05-15T13:06:15.369Z,37.09
2019-05-15T13:08:48.910Z,37.27
2019-05-15T13:11:19.919Z,36.88
2019-05-15T13:13:51.602Z,38.30
2019-05-15T13:16:23.058Z,35.94
2019-05-15T13:18:54.347Z,36.95
2019-05-15T13:21:26.077Z,36.44
2019-05-15T13:23:58.654Z,38.00
2019-05-15T13:26:30.553Z,36.93
2019-05-15T13:29:02.063Z,38.72
2019-05-15T13:31:33.827Z,38.51
2019-05-15T13:34:05.139Z,38.73
2019-05-15T13:36:39.013Z,37.60
2019-05-15T13:39:09.762Z,37.94
2019-05-15T13:41:41.330Z,38.50
2019-05-15T13:44:14.223Z,39.03
2019-05-15T13:46:47.160Z,39.44
2019-05-15T13:49:19.092Z,39.99
2019-05-15T13:51:50.687Z,40.02
2019-05-15T13:54:22.322Z,39.61
2019-05-15T13:56:53.867Z,40.42
2019-05-15T13:59:28.643Z,40.58
2019-05-15T14:02:01.761Z,39.88
2019-05-15T14:04:33.877Z,41.89
2019-05-15T14:07:08.378Z,40.79
2019-05-15T14:09:48.151Z,42.75
2019-05-15T14:12:21.407Z,40.88
2019-05-15T14:14:58.093Z,41.96
2019-05-15T14:17:31.069Z,43.31
2019-05-15T14:23:13.889Z,42.63
2019-05-15T14:25:58.894Z,43.64
2019-05-15T14:28:48.112Z,44.50
2019-05-15T14:31:43.219Z,44.48
2019-05-15T14:34:54.476Z,44.69
2019-05-15T14:38:02.658Z,43.07
2019-05-15T14:40:34.514Z,44.58
2019-05-15T14:43:14.910Z,45.70
2019-05-15T14:46:08.114Z,45.19
2019-05-15T14:48:50.455Z,46.27
2019-05-15T14:51:28.511Z,44.46
2019-05-15T14:54:14.551Z,45.40
2019-05-15T14:56:58.664Z,44.94
2019-05-15T14:59:40.305Z,46.41
2019-05-15T15:02:26.008Z,45.33
2019-05-15T15:05:26.373Z,44.81
2019-05-15T15:08:17.138Z,45.53
2019-05-15T15:10:59.852Z,45.29
2019-05-15T15:13:57.862Z,46.56
2019-05-15T15:16:42.716Z,44.62
2019-05-15T15:19:35.035Z,43.81
2019-05-15T15:22:19.537Z,44.03
2019-05-15T15:24:53.019Z,44.69
2019-05-15T15:27:38.600Z,45.59
2019-05-15T15:30:29.350Z,44.58
2019-05-15T15:33:14.105Z,44.89
2019-05-15T15:35:59.351Z,44.70
2019-05-15T15:38:43.707Z,45.22
2019-05-15T15:41:19.613Z,45.45
2019-05-15T15:43:58.668Z,46.17
2019-05-15T15:46:39.579Z,46.21
2019-05-15T15:49:23.651Z,45.52
2019-05-15T15:52:02.238Z,45.29
2019-05-15T15:58:03.877Z,45.59
2019-05-15T16:00:50.166Z,46.97
2019-05-15T16:03:38.381Z,47.21
2019-05-15T16:09:31.999Z,46.88
2019-05-15T16:12:39.138Z,47.34
2019-05-15T16:15:24.846Z,47.32
2019-05-15T16:18:08.995Z,48.99
2019-05-15T16:20:52.007Z,49.01
2019-05-15T16:23:59.035Z,48.89
2019-05-15T16:26:49.662Z,49.42
2019-05-15T16:29:28.845Z,50.40
2019-05-15T16:32:09.792Z,50.58
2019-05-15T16:35:09.328Z,53.14
2019-05-15T16:37:49.750Z,53.71
2019-05-15T16:40:45.334Z,54.88
2019-05-15T16:43:43.807Z,55.19
2019-05-15T16:46:28.225Z,56.17
2019-05-15T16:49:10.574Z,56.53
2019-05-15T16:52:04.487Z,57.78
2019-05-15T16:54:43.016Z,59.15
2019-05-15T16:57:42.829Z,59.28
2019-05-15T17:00:34.188Z,59.55
2019-05-15T17:03:14.940Z,59.15
2019-05-15T17:05:51.398Z,59.76
2019-05-15T17:08:41.589Z,61.09
2019-05-15T17:11:28.894Z,60.77
2019-05-15T17:14:19.680Z,61.89
2019-05-15T17:17:20.583Z,60.39
2019-05-15T17:20:04.685Z,59.92
2019-05-15T17:22:49.198Z,62.10
2019-05-15T17:25:38.223Z,63.75
2019-05-15T17:28:18.523Z,63.12
2019-05-15T17:31:03.281Z,62.18
2019-05-15T17:33:40.017Z,61.22
2019-05-15T17:36:38.098Z,63.02
2019-05-15T17:39:33.821Z,64.30
2019-05-15T17:42:00.656Z,65.44
2019-05-15T17:44:43.520Z,65.13
2019-05-15T17:47:28.591Z,66.99
2019-05-15T17:50:28.342Z,66.39
2019-05-15T17:53:07.936Z,66.26
2019-05-15T17:56:04.688Z,67.52
2019-05-15T18:02:04.681Z,68.27
2019-05-15T18:04:51.947Z,67.89
2019-05-15T18:07:48.655Z,68.24
2019-05-15T18:10:27.927Z,69.32
2019-05-15T18:13:04.415Z,68.95
2019-05-15T18:15:53.933Z,68.12
2019-05-15T18:18:47.919Z,69.05
2019-05-15T18:21:22.293Z,67.62
2019-05-15T18:23:53.926Z,67.41
2019-05-15T18:26:25.441Z,67.62
2019-05-15T18:28:58.310Z,67.76
2019-05-15T18:31:30.585Z,68.15
2019-05-15T18:34:02.347Z,69.63
2019-05-15T18:36:33.885Z,70.54
2019-05-15T18:39:08.458Z,71.96
2019-05-15T18:41:40.131Z,71.13
2019-05-15T18:44:13.615Z,70.45
2019-05-15T18:46:49.896Z,69.83
2019-05-15T18:49:22.075Z,70.31
2019-05-15T18:51:53.535Z,72.20
2019-05-15T18:54:25.079Z,71.66
2019-05-15T18:56:58.473Z,71.67
2019-05-15T18:59:31.679Z,71.45
2019-05-15T19:02:03.323Z,71.71
2019-05-15T19:04:35.108Z,72.63
2019-05-15T19:07:08.707Z,74.15
2019-05-15T19:09:39.823Z,73.87
2019-05-15T19:12:11.762Z,72.23
2019-05-15T19:14:43.497Z,72.44
2019-05-15T19:17:15.146Z,74.30
2019-05-15T19:19:48.185Z,74.74
2019-05-15T19:22:20.153Z,74.83
2019-05-15T19:24:51.892Z,75.91
2019-05-15T19:27:23.663Z,75.72
2019-05-15T19:29:59.037Z,75.41
2019-05-15T19:32:31.547Z,74.65
2019-05-15T19:35:03.998Z,76.16
2019-05-15T19:37:37.788Z,75.21
2019-05-15T19:40:09.677Z,75.19
2019-05-15T19:42:41.234Z,75.09
2019-05-15T19:45:13.188Z,76.16
2019-05-15T19:47:44.975Z,76.80
2019-05-15T19:50:18.116Z,76.83
2019-05-15T19:52:50.965Z,75.99
2019-05-15T19:55:22.567Z,75.74
2019-05-15T19:57:55.379Z,76.47
2019-05-15T20:00:28.509Z,77.29
2019-05-15T20:03:00.039Z,75.88
2019-05-15T20:05:31.907Z,76.63
2019-05-15T20:08:03.661Z,76.69
2019-05-15T20:10:35.658Z,76.71
2019-05-15T20:13:07.598Z,77.65
2019-05-15T20:15:39.558Z,77.89
2019-05-15T20:18:11.725Z,77.99
2019-05-15T20:20:44.086Z,77.82
2019-05-15T20:23:18.259Z,78.71
2019-05-15T20:25:49.899Z,79.43
2019-05-15T20:28:22.082Z,79.77
2019-05-15T20:30:53.750Z,80.00
2019-05-15T20:33:25.360Z,80.89
2019-05-15T20:35:58.843Z,80.70
2019-05-15T20:38:31.532Z,80.82
2019-05-15T20:41:03.372Z,80.28
2019-05-15T20:43:34.818Z,80.61
2019-05-15T20:46:08.456Z,80.16
2019-05-15T20:48:40.183Z,80.62
2019-05-15T20:51:11.736Z,81.10
2019-05-15T20:53:43.397Z,81.95
2019-05-15T20:56:15.178Z,81.99
2019-05-15T20:58:47.907Z,82.10
2019-05-15T21:01:20.817Z,81.33
2019-05-15T21:03:52.572Z,82.29
2019-05-15T21:06:24.431Z,82.22
2019-05-15T21:08:57.862Z,83.00
2019-05-15T21:11:29.691Z,82.71
2019-05-15T21:14:01.440Z,82.89
2019-05-15T21:16:33.219Z,82.28
2019-05-15T21:19:04.545Z,82.71
2019-05-15T21:21:38.432Z,82.94
2019-05-15T21:24:10.416Z,83.59
2019-05-15T21:26:41.984Z,83.81
2019-05-15T21:29:13.729Z,83.50
2019-05-15T21:31:45.587Z,84.08
2019-05-15T21:34:32.261Z,83.53
2019-05-15T21:36:52.163Z,83.78
2019-05-15T21:39:23.831Z,84.32
2019-05-15T21:41:58.153Z,83.68
2019-05-15T21:44:29.380Z,83.95
2019-05-15T21:47:01.967Z,84.40
2019-05-15T21:49:33.634Z,84.71
2019-05-15T21:52:05.379Z,84.53
2019-05-15T21:54:38.535Z,84.27
2019-05-15T21:57:29.111Z,84.85
2019-05-15T21:59:43.322Z,84.62
2019-05-15T22:02:14.866Z,84.70
2019-05-15T22:04:54.865Z,84.85
2019-05-15T22:07:19.819Z,84.66
2019-05-15T22:09:51.269Z,84.62
2019-05-15T22:12:23.037Z,84.22
2019-05-15T22:14:55.403Z,85.04
2019-05-15T22:17:29.351Z,85.67
2019-05-15T22:20:00.246Z,86.05
2019-05-15T22:22:32.056Z,86.12
2019-05-15T22:25:04.273Z,86.10
2019-05-15T22:27:37.790Z,85.85
2019-05-15T22:30:08.922Z,85.43
2019-05-15T22:32:41.716Z,85.80
2019-05-15T22:35:14.162Z,86.09
2019-05-15T22:37:45.877Z,86.06
2019-05-15T22:40:18.685Z,85.64
2019-05-15T22:42:50.463Z,85.49
2019-05-15T22:45:22.328Z,85.46
2019-05-15T22:47:54.183Z,85.08
2019-05-15T22:50:27.854Z,85.19
2019-05-15T22:52:59.130Z,84.84
2019-05-15T22:55:30.578Z,85.32
2019-05-15T22:58:02.412Z,85.84
2019-05-15T23:00:33.998Z,85.31
2019-05-15T23:03:08.237Z,85.40
2019-05-15T23:05:39.253Z,85.77
2019-05-15T23:08:11.211Z,85.49
2019-05-15T23:10:42.558Z,85.68
2019-05-15T23:13:14.322Z,85.12
2019-05-15T23:15:47.718Z,85.24
2019-05-15T23:18:19.374Z,85.64
2019-05-15T23:20:51.236Z,85.66
2019-05-15T23:23:24.640Z,85.21
2019-05-15T23:25:57.816Z,85.56
2019-05-15T23:28:29.369Z,85.60
2019-05-15T23:31:01.026Z,85.94
2019-05-15T23:33:32.882Z,86.36
2019-05-15T23:36:04.232Z,86.28
2019-05-15T23:38:35.892Z,86.06
2019-05-15T23:41:08.220Z,86.15
2019-05-15T23:43:39.816Z,86.07
2019-05-15T23:46:11.168Z,86.68
2019-05-15T23:48:42.825Z,86.49
2019-05-15T23:51:14.169Z,86.24
2019-05-15T23:53:48.177Z,85.95
2019-05-15T23:56:19.392Z,86.01
2019-05-15T23:58:51.978Z,86.68
